createdAt,value
2019-02-08T00:00:18.696Z,965.76
2019-02-08T00:01:18.671Z,965.77
2019-02-08T00:02:18.578Z,965.76
2019-02-08T00:03:18.525Z,965.81
2019-02-08T00:04:18.462Z,965.79
2019-02-08T00:05:18.435Z,965.76
2019-02-08T00:06:18.346Z,965.80
2019-02-08T00:07:18.290Z,965.82
2019-02-08T00:08:18.234Z,965.86
2019-02-08T00:09:18.174Z,965.81
2019-02-08T00:10:18.149Z,965.85
2019-02-08T00:11:18.053Z,965.79
2019-02-08T00:12:19.712Z,965.82
2019-02-08T00:13:17.943Z,965.84
2019-02-08T00:14:17.879Z,965.81
2019-02-08T00:15:17.902Z,965.84
2019-02-08T00:16:17.781Z,965.82
2019-02-08T00:17:17.705Z,965.88
2019-02-08T00:18:17.645Z,965.86
2019-02-08T00:19:17.590Z,965.83
2019-02-08T00:20:17.563Z,965.82
2019-02-08T00:21:17.477Z,965.79
2019-02-08T00:22:17.413Z,965.79
2019-02-08T00:23:26.329Z,965.80
2019-02-08T00:24:17.301Z,965.81
2019-02-08T00:25:17.273Z,965.77
2019-02-08T00:26:17.188Z,965.78
2019-02-08T00:27:17.117Z,965.77
2019-02-08T00:28:17.117Z,965.75
2019-02-08T00:29:17.001Z,965.80
2019-02-08T00:30:16.947Z,965.83
2019-02-08T00:31:16.925Z,965.84
2019-02-08T00:32:16.827Z,965.83
2019-02-08T00:33:16.767Z,965.81
2019-02-08T00:34:16.710Z,965.83
2019-02-08T00:35:16.651Z,965.83
2019-02-08T00:36:16.640Z,965.88
2019-02-08T00:37:16.534Z,965.84
2019-02-08T00:38:16.477Z,965.87
2019-02-08T00:39:16.424Z,965.90
2019-02-08T00:40:16.361Z,965.91
2019-02-08T00:41:16.334Z,965.92
2019-02-08T00:42:16.244Z,965.90
2019-02-08T00:43:16.184Z,965.91
2019-02-08T00:44:16.128Z,965.90
2019-02-08T00:45:16.073Z,965.89
2019-02-08T00:46:16.041Z,965.89
2019-02-08T00:47:15.952Z,965.84
2019-02-08T00:48:15.892Z,965.89
2019-02-08T00:49:15.834Z,965.87
2019-02-08T00:50:15.775Z,965.81
2019-02-08T00:51:15.751Z,965.88
2019-02-08T00:52:15.658Z,965.89
2019-02-08T00:53:15.602Z,965.86
2019-02-08T00:54:15.542Z,965.79
2019-02-08T00:55:15.486Z,965.85
2019-02-08T00:56:15.478Z,965.88
2019-02-08T00:57:15.367Z,965.79
2019-02-08T00:58:15.310Z,965.81
2019-02-08T00:59:15.290Z,965.80
2019-02-08T01:00:15.194Z,965.80
2019-02-08T01:01:15.133Z,965.79
2019-02-08T01:02:15.111Z,965.73
2019-02-08T01:03:15.020Z,965.71
2019-02-08T01:04:14.995Z,965.72
2019-02-08T01:05:14.898Z,965.79
2019-02-08T01:06:14.841Z,965.75
2019-02-08T01:07:14.784Z,965.79
2019-02-08T01:08:14.729Z,965.80
2019-02-08T01:09:14.699Z,965.78
2019-02-08T01:10:14.610Z,965.86
2019-02-08T01:11:14.585Z,965.84
2019-02-08T01:12:14.493Z,965.87
2019-02-08T01:13:14.436Z,965.97
2019-02-08T01:14:14.412Z,965.93
2019-02-08T01:15:14.319Z,965.91
2019-02-08T01:16:14.262Z,966.01
2019-02-08T01:17:14.232Z,965.98
2019-02-08T01:18:14.142Z,965.96
2019-02-08T01:19:14.117Z,966.01
2019-02-08T01:20:14.027Z,965.96
2019-02-08T01:21:13.967Z,965.94
2019-02-08T01:22:13.908Z,965.99
2019-02-08T01:23:13.866Z,965.97
2019-02-08T01:24:13.821Z,965.97
2019-02-08T01:25:13.734Z,966.04
2019-02-08T01:26:13.683Z,966.02
2019-02-08T01:27:13.623Z,966.07
2019-02-08T01:28:13.573Z,966.02
2019-02-08T01:29:13.530Z,966.06
2019-02-08T01:30:13.440Z,966.04
2019-02-08T01:31:13.418Z,966.09
2019-02-08T01:32:13.327Z,966.13
2019-02-08T01:33:13.265Z,966.08
2019-02-08T01:34:13.209Z,966.05
2019-02-08T01:35:13.152Z,966.05
2019-02-08T01:36:13.139Z,966.06
2019-02-08T01:37:13.031Z,966.06
2019-02-08T01:38:12.973Z,966.02
2019-02-08T01:39:12.916Z,966.03
2019-02-08T01:40:12.859Z,966.01
2019-02-08T01:41:12.833Z,966.03
2019-02-08T01:42:12.773Z,966.02
2019-02-08T01:43:12.682Z,966.03
2019-02-08T01:44:12.626Z,966.05
2019-02-08T01:45:12.566Z,966.03
2019-02-08T01:46:12.510Z,966.05
2019-02-08T01:47:12.482Z,966.03
2019-02-08T01:48:12.395Z,966.06
2019-02-08T01:49:12.334Z,966.06
2019-02-08T01:50:12.276Z,966.03
2019-02-08T01:51:12.217Z,966.14
2019-02-08T01:52:12.192Z,966.10
2019-02-08T01:53:12.102Z,966.11
2019-02-08T01:54:12.041Z,966.09
2019-02-08T01:55:12.018Z,966.11
2019-02-08T01:56:11.927Z,966.13
2019-02-08T01:57:11.868Z,966.13
2019-02-08T01:58:11.810Z,966.11
2019-02-08T01:59:11.781Z,966.18
2019-02-08T02:00:11.693Z,966.18
2019-02-08T02:01:11.641Z,966.13
2019-02-08T02:02:11.577Z,966.18
2019-02-08T02:03:11.552Z,966.16
2019-02-08T02:04:11.465Z,966.16
2019-02-08T02:05:11.444Z,966.11
2019-02-08T02:06:11.348Z,966.13
2019-02-08T02:07:11.288Z,966.19
2019-02-08T02:08:11.227Z,966.14
2019-02-08T02:09:11.171Z,966.20
2019-02-08T02:10:11.142Z,966.17
2019-02-08T02:11:11.109Z,966.21
2019-02-08T02:12:11.000Z,966.14
2019-02-08T02:13:10.962Z,966.16
2019-02-08T02:14:10.882Z,966.12
2019-02-08T02:15:10.828Z,966.11
2019-02-08T02:16:10.797Z,966.09
2019-02-08T02:17:10.705Z,966.06
2019-02-08T02:18:10.679Z,966.12
2019-02-08T02:19:10.594Z,966.13
2019-02-08T02:20:10.533Z,966.15
2019-02-08T02:21:10.476Z,966.14
2019-02-08T02:22:10.416Z,966.15
2019-02-08T02:23:10.395Z,966.17
2019-02-08T02:24:10.301Z,966.20
2019-02-08T02:25:10.242Z,966.14
2019-02-08T02:26:10.184Z,966.17
2019-02-08T02:27:10.129Z,966.16
2019-02-08T02:28:10.102Z,966.21
2019-02-08T02:29:10.034Z,966.16
2019-02-08T02:30:09.953Z,966.11
2019-02-08T02:31:09.896Z,966.07
2019-02-08T02:32:09.843Z,966.04
2019-02-08T02:33:09.810Z,966.06
2019-02-08T02:34:09.733Z,966.03
2019-02-08T02:35:09.664Z,966.05
2019-02-08T02:36:09.639Z,966.10
2019-02-08T02:37:09.545Z,966.07
2019-02-08T02:38:09.489Z,966.09
2019-02-08T02:39:09.430Z,966.10
2019-02-08T02:40:09.373Z,966.08
2019-02-08T02:41:09.345Z,966.10
2019-02-08T02:42:09.258Z,966.01
2019-02-08T02:43:09.207Z,966.01
2019-02-08T02:44:09.141Z,966.00
2019-02-08T02:45:09.083Z,966.02
2019-02-08T02:46:09.062Z,966.09
2019-02-08T02:47:08.976Z,966.05
2019-02-08T02:48:08.948Z,966.03
2019-02-08T02:49:08.851Z,966.06
2019-02-08T02:50:08.801Z,966.07
2019-02-08T02:51:08.736Z,966.06
2019-02-08T02:52:08.678Z,966.02
2019-02-08T02:53:08.652Z,966.03
2019-02-08T02:54:08.560Z,965.94
2019-02-08T02:55:08.504Z,965.95
2019-02-08T02:56:08.476Z,965.96
2019-02-08T02:57:08.385Z,966.03
2019-02-08T02:58:08.331Z,965.99
2019-02-08T02:59:08.272Z,966.00
2019-02-08T03:00:08.219Z,966.02
2019-02-08T03:01:08.186Z,965.99
2019-02-08T03:02:08.138Z,966.00
2019-02-08T03:03:08.044Z,966.07
2019-02-08T03:04:07.985Z,966.09
2019-02-08T03:05:07.923Z,966.12
2019-02-08T03:06:07.876Z,966.12
2019-02-08T03:07:07.857Z,966.11
2019-02-08T03:08:07.752Z,966.12
2019-02-08T03:09:07.690Z,966.11
2019-02-08T03:10:07.634Z,966.13
2019-02-08T03:11:07.575Z,966.15
2019-02-08T03:12:07.551Z,966.15
2019-02-08T03:13:07.484Z,966.12
2019-02-08T03:14:07.400Z,966.13
2019-02-08T03:15:07.342Z,966.12
2019-02-08T03:16:07.285Z,966.13
2019-02-08T03:17:07.226Z,966.14
2019-02-08T03:18:07.197Z,966.04
2019-02-08T03:19:07.142Z,966.16
2019-02-08T03:20:07.056Z,966.03
2019-02-08T03:21:06.995Z,966.06
2019-02-08T03:22:06.942Z,966.06
2019-02-08T03:23:06.911Z,966.06
2019-02-08T03:24:12.957Z,966.06
2019-02-08T03:25:06.761Z,966.04
2019-02-08T03:26:06.704Z,966.05
2019-02-08T03:27:06.646Z,966.05
2019-02-08T03:28:06.623Z,966.06
2019-02-08T03:29:06.573Z,966.08
2019-02-08T03:30:06.470Z,966.10
2019-02-08T03:31:06.416Z,966.02
2019-02-08T03:32:06.369Z,966.03
2019-02-08T03:33:06.303Z,966.06
2019-02-08T03:34:06.271Z,966.05
2019-02-08T03:35:06.212Z,966.04
2019-02-08T03:36:06.142Z,966.04
2019-02-08T03:37:06.069Z,966.04
2019-02-08T03:38:06.013Z,966.05
2019-02-08T03:39:05.974Z,966.08
2019-02-08T03:40:05.891Z,966.05
2019-02-08T03:41:05.870Z,966.05
2019-02-08T03:42:05.776Z,966.03
2019-02-08T03:43:05.748Z,966.04
2019-02-08T03:44:05.660Z,966.02
2019-02-08T03:45:05.601Z,965.99
2019-02-08T03:46:05.576Z,966.06
2019-02-08T03:47:05.485Z,966.02
2019-02-08T03:48:05.429Z,965.98
2019-02-08T03:49:05.404Z,966.00
2019-02-08T03:50:05.313Z,965.97
2019-02-08T03:51:05.288Z,966.03
2019-02-08T03:52:05.195Z,966.00
2019-02-08T03:53:05.134Z,966.03
2019-02-08T03:54:05.078Z,966.05
2019-02-08T03:55:05.054Z,966.05
2019-02-08T03:56:04.965Z,966.12
2019-02-08T03:57:04.904Z,966.14
2019-02-08T03:58:04.894Z,966.09
2019-02-08T03:59:04.789Z,966.12
2019-02-08T04:00:04.732Z,966.16
2019-02-08T04:01:04.676Z,966.12
2019-02-08T04:02:04.613Z,966.10
2019-02-08T04:03:04.587Z,966.06
2019-02-08T04:04:04.497Z,966.06
2019-02-08T04:05:04.451Z,966.08
2019-02-08T04:06:04.415Z,966.08
2019-02-08T04:07:04.323Z,966.10
2019-02-08T04:08:04.268Z,966.12
2019-02-08T04:09:04.207Z,966.14
2019-02-08T04:10:04.152Z,966.11
2019-02-08T04:11:04.126Z,966.12
2019-02-08T04:12:04.038Z,966.18
2019-02-08T04:13:03.975Z,966.19
2019-02-08T04:14:03.920Z,966.11
2019-02-08T04:15:03.863Z,966.13
2019-02-08T04:16:03.842Z,966.15
2019-02-08T04:17:03.744Z,966.15
2019-02-08T04:18:03.683Z,966.19
2019-02-08T04:19:03.629Z,966.19
2019-02-08T04:20:03.571Z,966.21
2019-02-08T04:21:03.541Z,966.16
2019-02-08T04:22:03.454Z,966.16
2019-02-08T04:23:03.399Z,966.18
2019-02-08T04:24:03.462Z,966.13
2019-02-08T04:25:03.279Z,966.18
2019-02-08T04:26:03.225Z,966.15
2019-02-08T04:27:03.165Z,966.19
2019-02-08T04:28:03.105Z,966.16
2019-02-08T04:29:03.084Z,966.17
2019-02-08T04:30:02.998Z,966.20
2019-02-08T04:31:02.932Z,966.15
2019-02-08T04:32:02.871Z,966.12
2019-02-08T04:33:02.817Z,966.14
2019-02-08T04:34:02.799Z,966.11
2019-02-08T04:35:02.695Z,966.12
2019-02-08T04:36:02.642Z,966.14
2019-02-08T04:37:02.581Z,966.14
2019-02-08T04:38:02.525Z,966.10
2019-02-08T04:39:02.498Z,966.18
2019-02-08T04:40:02.413Z,966.23
2019-02-08T04:41:02.383Z,966.25
2019-02-08T04:42:02.291Z,966.32
2019-02-08T04:43:02.231Z,966.30
2019-02-08T04:44:02.175Z,966.30
2019-02-08T04:45:02.150Z,966.28
2019-02-08T04:46:02.091Z,966.30
2019-02-08T04:47:02.002Z,966.28
2019-02-08T04:48:01.944Z,966.26
2019-02-08T04:49:01.885Z,966.27
2019-02-08T04:50:01.831Z,966.27
2019-02-08T04:51:01.790Z,966.25
2019-02-08T04:52:01.712Z,966.26
2019-02-08T04:53:01.651Z,966.27
2019-02-08T04:54:01.596Z,966.32
2019-02-08T04:55:01.537Z,966.27
2019-02-08T04:56:01.529Z,966.29
2019-02-08T04:57:01.423Z,966.29
2019-02-08T04:58:01.360Z,966.29
2019-02-08T04:59:01.308Z,966.27
2019-02-08T05:00:01.247Z,966.26
2019-02-08T05:01:01.219Z,966.29
2019-02-08T05:02:01.133Z,966.27
2019-02-08T05:03:01.072Z,966.29
2019-02-08T05:04:01.012Z,966.29
2019-02-08T05:05:00.954Z,966.32
2019-02-08T05:06:00.938Z,966.29
2019-02-08T05:07:00.845Z,966.30
2019-02-08T05:08:00.781Z,966.28
2019-02-08T05:09:00.722Z,966.22
2019-02-08T05:10:00.671Z,966.20
2019-02-08T05:11:00.641Z,966.24
2019-02-08T05:12:00.557Z,966.18
2019-02-08T05:13:00.514Z,966.19
2019-02-08T05:14:00.437Z,966.16
2019-02-08T05:15:00.377Z,966.12
2019-02-08T05:16:00.363Z,966.11
2019-02-08T05:17:00.256Z,966.12
2019-02-08T05:18:00.252Z,966.16
2019-02-08T05:19:00.143Z,966.16
2019-02-08T05:20:00.138Z,966.10
2019-02-08T05:21:00.054Z,966.10
2019-02-08T05:21:59.968Z,966.10
2019-02-08T05:22:59.912Z,966.04
2019-02-08T05:23:59.858Z,966.03
2019-02-08T05:24:59.802Z,966.07
2019-02-08T05:25:59.767Z,966.00
2019-02-08T05:26:59.674Z,965.97
2019-02-08T05:27:59.618Z,965.98
2019-02-08T05:28:59.586Z,966.05
2019-02-08T05:29:59.509Z,966.05
2019-02-08T05:30:59.453Z,966.05
2019-02-08T05:31:59.383Z,966.09
2019-02-08T05:32:59.328Z,966.08
2019-02-08T05:33:59.313Z,966.07
2019-02-08T05:34:59.210Z,966.06
2019-02-08T05:35:59.154Z,966.10
2019-02-08T05:36:59.124Z,966.06
2019-02-08T05:37:59.040Z,966.09
2019-02-08T05:38:58.978Z,966.09
2019-02-08T05:39:58.949Z,966.19
2019-02-08T05:40:58.864Z,966.19
2019-02-08T05:41:58.846Z,966.21
2019-02-08T05:42:58.745Z,966.16
2019-02-08T05:43:58.687Z,966.17
2019-02-08T05:44:58.660Z,966.17
2019-02-08T05:45:58.607Z,966.17
2019-02-08T05:46:58.512Z,966.21
2019-02-08T05:47:58.485Z,966.14
2019-02-08T05:48:58.398Z,966.18
2019-02-08T05:49:58.339Z,966.16
2019-02-08T05:50:58.318Z,966.18
2019-02-08T05:51:58.225Z,966.17
2019-02-08T05:52:58.269Z,966.16
2019-02-08T05:53:58.103Z,966.09
2019-02-08T05:54:58.054Z,966.09
2019-02-08T05:55:58.038Z,966.14
2019-02-08T05:56:57.935Z,966.13
2019-02-08T05:57:57.873Z,966.09
2019-02-08T05:58:57.812Z,966.11
2019-02-08T05:59:57.758Z,966.08
2019-02-08T06:00:57.746Z,966.12
2019-02-08T06:01:57.640Z,966.08
2019-02-08T06:02:57.645Z,966.17
2019-02-08T06:03:57.522Z,966.12
2019-02-08T06:04:57.466Z,966.18
2019-02-08T06:05:57.438Z,966.13
2019-02-08T06:06:57.347Z,966.11
2019-02-08T06:07:57.316Z,966.09
2019-02-08T06:08:57.271Z,966.06
2019-02-08T06:09:57.175Z,966.11
2019-02-08T06:10:57.132Z,966.09
2019-02-08T06:11:57.059Z,966.08
2019-02-08T06:12:57.013Z,966.09
2019-02-08T06:13:56.997Z,966.13
2019-02-08T06:14:56.892Z,966.15
2019-02-08T06:15:56.831Z,966.19
2019-02-08T06:16:56.765Z,966.17
2019-02-08T06:17:56.747Z,966.15
2019-02-08T06:18:56.650Z,966.20
2019-02-08T06:19:56.592Z,966.22
2019-02-08T06:20:56.534Z,966.24
2019-02-08T06:21:56.508Z,966.25
2019-02-08T06:22:56.425Z,966.21
2019-02-08T06:23:56.360Z,966.24
2019-02-08T06:25:03.295Z,966.20
2019-02-08T06:25:56.276Z,966.23
2019-02-08T06:26:56.185Z,966.22
2019-02-08T06:27:56.127Z,966.20
2019-02-08T06:28:56.096Z,966.21
2019-02-08T06:29:56.009Z,966.21
2019-02-08T06:30:55.951Z,966.23
2019-02-08T06:31:55.893Z,966.24
2019-02-08T06:32:55.838Z,966.20
2019-02-08T06:33:55.858Z,966.23
2019-02-08T06:34:55.719Z,966.24
2019-02-08T06:35:55.670Z,966.20
2019-02-08T06:36:55.605Z,966.27
2019-02-08T06:37:55.555Z,966.26
2019-02-08T06:38:55.516Z,966.26
2019-02-08T06:39:55.430Z,966.24
2019-02-08T06:40:55.369Z,966.22
2019-02-08T06:41:55.314Z,966.22
2019-02-08T06:42:55.287Z,966.23
2019-02-08T06:43:55.215Z,966.27
2019-02-08T06:44:55.138Z,966.24
2019-02-08T06:45:55.079Z,966.24
2019-02-08T06:46:55.022Z,966.25
2019-02-08T06:47:54.994Z,966.30
2019-02-08T06:48:54.909Z,966.24
2019-02-08T06:49:54.845Z,966.25
2019-02-08T06:50:54.820Z,966.33
2019-02-08T06:51:54.761Z,966.22
2019-02-08T06:52:54.672Z,966.24
2019-02-08T06:53:54.645Z,966.32
2019-02-08T06:54:54.556Z,966.35
2019-02-08T06:55:54.497Z,966.33
2019-02-08T06:56:54.439Z,966.36
2019-02-08T06:57:54.379Z,966.41
2019-02-08T06:58:54.354Z,966.43
2019-02-08T06:59:54.263Z,966.46
2019-02-08T07:00:54.206Z,966.42
2019-02-08T07:01:54.149Z,966.47
2019-02-08T07:02:54.122Z,966.49
2019-02-08T07:03:54.031Z,966.44
2019-02-08T07:04:54.002Z,966.49
2019-02-08T07:05:53.916Z,966.47
2019-02-08T07:06:53.857Z,966.47
2019-02-08T07:07:53.797Z,966.44
2019-02-08T07:08:53.741Z,966.44
2019-02-08T07:09:53.715Z,966.37
2019-02-08T07:10:53.658Z,966.41
2019-02-08T07:11:53.605Z,966.37
2019-02-08T07:12:53.504Z,966.39
2019-02-08T07:13:53.452Z,966.43
2019-02-08T07:14:53.389Z,966.41
2019-02-08T07:15:53.334Z,966.44
2019-02-08T07:16:53.311Z,966.44
2019-02-08T07:17:53.216Z,966.43
2019-02-08T07:18:53.158Z,966.49
2019-02-08T07:19:53.129Z,966.48
2019-02-08T07:20:53.078Z,966.51
2019-02-08T07:21:52.982Z,966.50
2019-02-08T07:22:52.926Z,966.55
2019-02-08T07:23:52.871Z,966.50
2019-02-08T07:24:52.808Z,966.53
2019-02-08T07:25:52.785Z,966.47
2019-02-08T07:26:52.799Z,966.50
2019-02-08T07:27:52.632Z,966.47
2019-02-08T07:28:52.575Z,966.50
2019-02-08T07:29:52.549Z,966.49
2019-02-08T07:30:52.457Z,966.57
2019-02-08T07:31:52.402Z,966.49
2019-02-08T07:32:52.348Z,966.51
2019-02-08T07:33:52.287Z,966.49
2019-02-08T07:34:52.251Z,966.51
2019-02-08T07:35:52.169Z,966.49
2019-02-08T07:36:52.140Z,966.46
2019-02-08T07:37:52.051Z,966.41
2019-02-08T07:38:51.992Z,966.42
2019-02-08T07:39:51.973Z,966.42
2019-02-08T07:40:51.875Z,966.44
2019-02-08T07:41:51.816Z,966.53
2019-02-08T07:42:51.766Z,966.56
2019-02-08T07:43:51.716Z,966.54
2019-02-08T07:44:51.675Z,966.55
2019-02-08T07:45:51.587Z,966.56
2019-02-08T07:46:51.551Z,966.61
2019-02-08T07:47:51.470Z,966.63
2019-02-08T07:48:51.409Z,966.68
2019-02-08T07:49:51.380Z,966.63
2019-02-08T07:50:51.293Z,966.62
2019-02-08T07:51:51.235Z,966.62
2019-02-08T07:52:51.175Z,966.56
2019-02-08T07:53:51.118Z,966.58
2019-02-08T07:54:51.094Z,966.61
2019-02-08T07:55:51.002Z,966.57
2019-02-08T07:56:50.976Z,966.57
2019-02-08T07:57:50.883Z,966.61
2019-02-08T07:58:50.828Z,966.50
2019-02-08T07:59:50.768Z,966.52
2019-02-08T08:00:50.713Z,966.57
2019-02-08T08:01:50.779Z,966.58
2019-02-08T08:02:50.596Z,966.56
2019-02-08T08:03:50.534Z,966.58
2019-02-08T08:04:50.478Z,966.56
2019-02-08T08:05:50.418Z,966.63
2019-02-08T08:06:50.394Z,966.64
2019-02-08T08:07:50.350Z,966.62
2019-02-08T08:08:50.246Z,966.66
2019-02-08T08:09:50.187Z,966.64
2019-02-08T08:10:50.128Z,966.65
2019-02-08T08:11:50.069Z,966.61
2019-02-08T08:12:50.054Z,966.56
2019-02-08T08:13:49.953Z,966.59
2019-02-08T08:14:49.897Z,966.57
2019-02-08T08:15:49.843Z,966.58
2019-02-08T08:16:49.790Z,966.64
2019-02-08T08:17:49.754Z,966.60
2019-02-08T08:18:49.665Z,966.54
2019-02-08T08:19:49.607Z,966.48
2019-02-08T08:20:49.547Z,966.50
2019-02-08T08:21:49.519Z,966.54
2019-02-08T08:22:49.429Z,966.54
2019-02-08T08:23:49.406Z,966.55
2019-02-08T08:24:49.313Z,966.61
2019-02-08T08:25:49.254Z,966.59
2019-02-08T08:26:49.246Z,966.51
2019-02-08T08:27:49.143Z,966.55
2019-02-08T08:28:49.078Z,966.63
2019-02-08T08:29:49.023Z,966.62
2019-02-08T08:30:48.967Z,966.61
2019-02-08T08:31:48.938Z,966.61
2019-02-08T08:32:48.846Z,966.66
2019-02-08T08:33:48.797Z,966.65
2019-02-08T08:34:48.732Z,966.65
2019-02-08T08:35:48.721Z,966.64
2019-02-08T08:36:48.615Z,966.67
2019-02-08T08:37:48.559Z,966.64
2019-02-08T08:38:48.532Z,966.61
2019-02-08T08:39:48.443Z,966.58
2019-02-08T08:40:48.384Z,966.61
2019-02-08T08:41:48.326Z,966.59
2019-02-08T08:42:48.302Z,966.62
2019-02-08T08:43:48.211Z,966.61
2019-02-08T08:44:48.153Z,966.63
2019-02-08T08:45:48.093Z,966.60
2019-02-08T08:46:48.037Z,966.60
2019-02-08T08:47:48.006Z,966.62
2019-02-08T08:48:47.918Z,966.63
2019-02-08T08:49:47.865Z,966.61
2019-02-08T08:50:47.805Z,966.64
2019-02-08T08:51:47.746Z,966.56
2019-02-08T08:52:47.720Z,966.58
2019-02-08T08:53:47.632Z,966.55
2019-02-08T08:54:47.572Z,966.63
2019-02-08T08:55:47.514Z,966.58
2019-02-08T08:56:47.455Z,966.58
2019-02-08T08:57:47.429Z,966.56
2019-02-08T08:58:47.374Z,966.62
2019-02-08T08:59:47.282Z,966.64
2019-02-08T09:00:47.223Z,966.65
2019-02-08T09:01:47.165Z,966.68
2019-02-08T09:02:47.122Z,966.72
2019-02-08T09:03:47.091Z,966.66
2019-02-08T09:04:46.992Z,966.67
2019-02-08T09:05:46.934Z,966.57
2019-02-08T09:06:46.875Z,966.55
2019-02-08T09:07:46.818Z,966.54
2019-02-08T09:08:46.800Z,966.56
2019-02-08T09:09:46.701Z,966.50
2019-02-08T09:10:46.652Z,966.52
2019-02-08T09:11:46.587Z,966.48
2019-02-08T09:12:46.527Z,966.47
2019-02-08T09:13:46.504Z,966.46
2019-02-08T09:14:46.410Z,966.43
2019-02-08T09:15:46.354Z,966.42
2019-02-08T09:16:46.294Z,966.44
2019-02-08T09:17:46.238Z,966.43
2019-02-08T09:18:46.211Z,966.42
2019-02-08T09:19:46.155Z,966.40
2019-02-08T09:20:46.062Z,966.44
2019-02-08T09:21:46.006Z,966.43
2019-02-08T09:22:45.947Z,966.45
2019-02-08T09:23:45.891Z,966.42
2019-02-08T09:24:45.856Z,966.47
2019-02-08T09:25:49.978Z,966.45
2019-02-08T09:26:45.749Z,966.42
2019-02-08T09:27:45.659Z,966.47
2019-02-08T09:28:45.600Z,966.42
2019-02-08T09:29:45.541Z,966.34
2019-02-08T09:30:45.483Z,966.39
2019-02-08T09:31:45.459Z,966.34
2019-02-08T09:32:45.370Z,966.34
2019-02-08T09:33:45.364Z,966.39
2019-02-08T09:34:45.253Z,966.32
2019-02-08T09:35:45.195Z,966.35
2019-02-08T09:36:47.489Z,966.35
2019-02-08T09:37:45.080Z,966.29
2019-02-08T09:38:45.053Z,966.32
2019-02-08T09:39:44.966Z,966.28
2019-02-08T09:40:44.911Z,966.31
2019-02-08T09:41:44.850Z,966.27
2019-02-08T09:42:44.793Z,966.29
2019-02-08T09:43:44.783Z,966.23
2019-02-08T09:44:44.674Z,966.30
2019-02-08T09:45:44.620Z,966.27
2019-02-08T09:46:44.560Z,966.23
2019-02-08T09:47:44.504Z,966.30
2019-02-08T09:48:44.487Z,966.26
2019-02-08T09:49:44.393Z,966.32
2019-02-08T09:50:44.330Z,966.29
2019-02-08T09:51:47.425Z,966.36
2019-02-08T09:52:44.248Z,966.35
2019-02-08T09:53:44.158Z,966.36
2019-02-08T09:54:44.103Z,966.33
2019-02-08T09:55:44.044Z,966.34
2019-02-08T09:56:44.017Z,966.38
2019-02-08T09:57:43.929Z,966.35
2019-02-08T09:58:43.871Z,966.36
2019-02-08T09:59:43.814Z,966.37
2019-02-08T10:00:43.787Z,966.44
2019-02-08T10:01:43.699Z,966.39
2019-02-08T10:02:43.673Z,966.31
2019-02-08T10:03:43.584Z,966.35
2019-02-08T10:04:43.525Z,966.37
2019-02-08T10:05:43.469Z,966.38
2019-02-08T10:06:43.410Z,966.34
2019-02-08T10:07:43.386Z,966.41
2019-02-08T10:08:43.296Z,966.35
2019-02-08T10:09:43.241Z,966.34
2019-02-08T10:10:43.181Z,966.40
2019-02-08T10:11:43.124Z,966.34
2019-02-08T10:12:43.099Z,966.36
2019-02-08T10:13:43.011Z,966.36
2019-02-08T10:14:42.994Z,966.33
2019-02-08T10:15:42.897Z,966.28
2019-02-08T10:16:42.838Z,966.23
2019-02-08T10:17:42.782Z,966.29
2019-02-08T10:18:42.727Z,966.23
2019-02-08T10:19:42.712Z,966.29
2019-02-08T10:20:42.609Z,966.30
2019-02-08T10:21:42.694Z,966.27
2019-02-08T10:22:42.498Z,966.26
2019-02-08T10:23:42.438Z,966.22
2019-02-08T10:24:42.381Z,966.21
2019-02-08T10:25:42.326Z,966.19
2019-02-08T10:26:42.325Z,966.20
2019-02-08T10:27:42.210Z,966.18
2019-02-08T10:28:42.154Z,966.23
2019-02-08T10:29:42.097Z,966.23
2019-02-08T10:30:42.040Z,966.21
2019-02-08T10:31:42.012Z,966.24
2019-02-08T10:32:41.956Z,966.20
2019-02-08T10:33:41.900Z,966.22
2019-02-08T10:34:41.812Z,966.26
2019-02-08T10:35:41.753Z,966.35
2019-02-08T10:36:41.697Z,966.20
2019-02-08T10:37:41.672Z,966.20
2019-02-08T10:38:41.589Z,966.26
2019-02-08T10:39:41.526Z,966.15
2019-02-08T10:40:41.468Z,966.18
2019-02-08T10:41:41.411Z,966.16
2019-02-08T10:42:41.387Z,966.16
2019-02-08T10:43:41.297Z,966.17
2019-02-08T10:44:41.244Z,966.14
2019-02-08T10:45:41.182Z,966.15
2019-02-08T10:46:41.130Z,966.19
2019-02-08T10:47:41.102Z,966.17
2019-02-08T10:48:41.014Z,966.15
2019-02-08T10:49:40.957Z,966.13
2019-02-08T10:50:40.897Z,966.10
2019-02-08T10:51:40.846Z,966.03
2019-02-08T10:52:40.818Z,966.06
2019-02-08T10:53:40.726Z,966.13
2019-02-08T10:54:40.680Z,966.12
2019-02-08T10:55:40.613Z,966.07
2019-02-08T10:56:40.563Z,966.07
2019-02-08T10:57:40.533Z,966.09
2019-02-08T10:58:40.444Z,966.06
2019-02-08T10:59:40.389Z,966.13
2019-02-08T11:00:40.328Z,966.01
2019-02-08T11:01:42.032Z,966.06
2019-02-08T11:02:40.249Z,966.04
2019-02-08T11:03:40.159Z,966.03
2019-02-08T11:04:40.101Z,965.98
2019-02-08T11:05:40.047Z,966.02
2019-02-08T11:06:39.986Z,965.94
2019-02-08T11:07:39.972Z,966.05
2019-02-08T11:08:39.871Z,966.00
2019-02-08T11:09:39.820Z,965.94
2019-02-08T11:10:39.760Z,965.93
2019-02-08T11:11:39.706Z,965.95
2019-02-08T11:12:39.680Z,965.97
2019-02-08T11:13:39.588Z,965.96
2019-02-08T11:14:39.533Z,965.94
2019-02-08T11:15:39.477Z,965.89
2019-02-08T11:16:39.452Z,965.89
2019-02-08T11:17:39.363Z,965.84
2019-02-08T11:18:39.340Z,965.86
2019-02-08T11:19:39.248Z,965.88
2019-02-08T11:20:39.193Z,965.81
2019-02-08T11:21:39.134Z,965.84
2019-02-08T11:22:39.078Z,965.84
2019-02-08T11:23:39.058Z,965.80
2019-02-08T11:24:38.968Z,965.82
2019-02-08T11:25:38.909Z,965.88
2019-02-08T11:26:38.853Z,965.78
2019-02-08T11:27:38.798Z,965.79
2019-02-08T11:28:38.780Z,965.73
2019-02-08T11:29:38.684Z,965.72
2019-02-08T11:30:38.634Z,965.68
2019-02-08T11:31:38.570Z,965.74
2019-02-08T11:32:43.169Z,965.71
2019-02-08T11:33:38.496Z,965.68
2019-02-08T11:34:38.403Z,965.64
2019-02-08T11:35:38.347Z,965.63
2019-02-08T11:36:38.301Z,965.61
2019-02-08T11:37:38.230Z,965.59
2019-02-08T11:38:38.227Z,965.54
2019-02-08T11:39:38.121Z,965.50
2019-02-08T11:40:38.068Z,965.52
2019-02-08T11:41:38.007Z,965.52
2019-02-08T11:42:37.963Z,965.52
2019-02-08T11:43:37.938Z,965.46
2019-02-08T11:44:37.846Z,965.43
2019-02-08T11:45:37.781Z,965.34
2019-02-08T11:46:37.724Z,965.45
2019-02-08T11:47:37.673Z,965.43
2019-02-08T11:48:37.643Z,965.44
2019-02-08T11:49:37.555Z,965.46
2019-02-08T11:50:37.533Z,965.44
2019-02-08T11:51:37.441Z,965.38
2019-02-08T11:52:37.438Z,965.37
2019-02-08T11:53:37.329Z,965.34
2019-02-08T11:54:37.272Z,965.36
2019-02-08T11:55:37.241Z,965.34
2019-02-08T11:56:37.179Z,965.37
2019-02-08T11:57:37.106Z,965.40
2019-02-08T11:58:37.096Z,965.40
2019-02-08T11:59:36.990Z,965.40
2019-02-08T12:00:36.932Z,965.38
2019-02-08T12:01:36.889Z,965.41
2019-02-08T12:02:40.511Z,965.36
2019-02-08T12:03:36.811Z,965.39
2019-02-08T12:04:36.707Z,965.34
2019-02-08T12:05:36.658Z,965.37
2019-02-08T12:06:36.596Z,965.34
2019-02-08T12:07:36.541Z,965.35
2019-02-08T12:08:36.518Z,965.29
2019-02-08T12:09:36.474Z,965.35
2019-02-08T12:10:36.368Z,965.31
2019-02-08T12:11:36.313Z,965.30
2019-02-08T12:12:36.264Z,965.29
2019-02-08T12:13:36.204Z,965.27
2019-02-08T12:14:36.174Z,965.26
2019-02-08T12:15:36.087Z,965.27
2019-02-08T12:16:36.033Z,965.26
2019-02-08T12:17:35.983Z,965.22
2019-02-08T12:18:35.917Z,965.25
2019-02-08T12:19:35.893Z,965.20
2019-02-08T12:20:35.839Z,965.24
2019-02-08T12:21:35.748Z,965.18
2019-02-08T12:22:35.724Z,965.19
2019-02-08T12:23:35.636Z,965.18
2019-02-08T12:24:35.580Z,965.11
2019-02-08T12:25:35.547Z,965.12
2019-02-08T12:26:37.818Z,965.08
2019-02-08T12:27:35.413Z,965.08